sensor_id;sensor_type;location;lat;lon;timestamp;temperature;humidity
6841;DHT22;3458;53.678;14.080;2023-03-01T00:00:11;1.00;99.90
6841;DHT22;3458;53.678;14.080;2023-03-01T00:02:37;0.90;99.90
6841;DHT22;3458;53.678;14.080;2023-03-01T00:05:03;1.00;99.90
6841;DHT22;3458;53.678;14.080;2023-03-01T00:07:28;1.00;99.90
6841;DHT22;3458;53.678;14.080;2023-03-01T00:09:54;1.00;99.90
6841;DHT22;3458;53.678;14.080;2023-03-01T00:12:20;0.90;99.90
6841;DHT22;3458;53.678;14.080;2023-03-01T00:14:45;0.90;99.90
6841;DHT22;3458;53.678;14.080;2023-03-01T00:17:10;0.90;99.90
6841;DHT22;3458;53.678;14.080;2023-03-01T00:19:36;0.90;99.90
6841;DHT22;3458;53.678;14.080;2023-03-01T00:22:02;0.90;99.90
6841;DHT22;3458;53.678;14.080;2023-03-01T00:24:28;1.00;99.90
6841;DHT22;3458;53.678;14.080;2023-03-01T00:26:54;0.90;99.90
6841;DHT22;3458;53.678;14.080;2023-03-01T00:29:22;0.90;99.90
6841;DHT22;3458;53.678;14.080;2023-03-01T00:31:48;0.80;99.90
6841;DHT22;3458;53.678;14.080;2023-03-01T00:34:13;0.80;99.90
6841;DHT22;3458;53.678;14.080;2023-03-01T00:36:39;0.80;99.90
6841;DHT22;3458;53.678;14.080;2023-03-01T00:39:07;0.90;99.90
6841;DHT22;3458;53.678;14.080;2023-03-01T00:41:34;0.80;99.90
6841;DHT22;3458;53.678;14.080;2023-03-01T00:44:00;0.80;99.90
6841;DHT22;3458;53.678;14.080;2023-03-01T00:46:26;0.80;99.90
6841;DHT22;3458;53.678;14.080;2023-03-01T00:48:53;0.80;99.90
6841;DHT22;3458;53.678;14.080;2023-03-01T00:51:22;0.80;99.90
6841;DHT22;3458;53.678;14.080;2023-03-01T00:53:51;0.90;99.90
6841;DHT22;3458;53.678;14.080;2023-03-01T00:56:17;0.80;99.90
6841;DHT22;3458;53.678;14.080;2023-03-01T00:58:42;0.80;99.90
6841;DHT22;3458;53.678;14.080;2023-03-01T01:01:20;0.80;99.90
6841;DHT22;3458;53.678;14.080;2023-03-01T01:03:49;0.80;99.90
6841;DHT22;3458;53.678;14.080;2023-03-01T01:06:20;0.80;99.90
6841;DHT22;3458;53.678;14.080;2023-03-01T01:08:47;0.80;99.90
6841;DHT22;3458;53.678;14.080;2023-03-01T01:11:13;0.80;99.90
6841;DHT22;3458;53.678;14.080;2023-03-01T01:13:40;0.70;99.90
6841;DHT22;3458;53.678;14.080;2023-03-01T01:16:06;0.70;99.90
6841;DHT22;3458;53.678;14.080;2023-03-01T01:18:32;0.60;99.90
6841;DHT22;3458;53.678;14.080;2023-03-01T01:20:57;0.60;99.90
6841;DHT22;3458;53.678;14.080;2023-03-01T01:23:23;0.60;99.90
6841;DHT22;3458;53.678;14.080;2023-03-01T01:25:48;0.60;99.90
6841;DHT22;3458;53.678;14.080;2023-03-01T01:28:14;0.60;99.90
6841;DHT22;3458;53.678;14.080;2023-03-01T01:30:39;0.60;99.90
6841;DHT22;3458;53.678;14.080;2023-03-01T01:33:05;0.60;99.90
6841;DHT22;3458;53.678;14.080;2023-03-01T01:35:30;0.60;99.90
6841;DHT22;3458;53.678;14.080;2023-03-01T01:37:56;0.50;99.90
6841;DHT22;3458;53.678;14.080;2023-03-01T01:40:21;0.50;99.90
6841;DHT22;3458;53.678;14.080;2023-03-01T01:42:47;0.50;99.90
6841;DHT22;3458;53.678;14.080;2023-03-01T01:45:29;0.50;99.90
6841;DHT22;3458;53.678;14.080;2023-03-01T01:47:59;0.50;99.90
6841;DHT22;3458;53.678;14.080;2023-03-01T01:50:26;0.40;99.90
6841;DHT22;3458;53.678;14.080;2023-03-01T01:52:53;0.40;99.90
6841;DHT22;3458;53.678;14.080;2023-03-01T01:55:24;0.40;99.90
6841;DHT22;3458;53.678;14.080;2023-03-01T01:57:53;0.40;99.90
6841;DHT22;3458;53.678;14.080;2023-03-01T02:00:28;0.40;99.90
6841;DHT22;3458;53.678;14.080;2023-03-01T02:02:57;0.40;99.90
6841;DHT22;3458;53.678;14.080;2023-03-01T02:08:00;0.30;99.90
6841;DHT22;3458;53.678;14.080;2023-03-01T02:10:27;0.20;99.90
6841;DHT22;3458;53.678;14.080;2023-03-01T02:12:54;0.20;99.90
6841;DHT22;3458;53.678;14.080;2023-03-01T02:15:22;0.20;99.90
6841;DHT22;3458;53.678;14.080;2023-03-01T02:17:48;0.20;99.90
6841;DHT22;3458;53.678;14.080;2023-03-01T02:20:24;0.20;99.90
6841;DHT22;3458;53.678;14.080;2023-03-01T02:22:53;0.20;99.90
6841;DHT22;3458;53.678;14.080;2023-03-01T02:25:25;0.20;99.90
6841;DHT22;3458;53.678;14.080;2023-03-01T02:30:45;0.30;99.90
6841;DHT22;3458;53.678;14.080;2023-03-01T02:33:32;0.30;99.90
6841;DHT22;3458;53.678;14.080;2023-03-01T02:36:06;0.20;99.90
6841;DHT22;3458;53.678;14.080;2023-03-01T02:38:32;0.20;99.90
6841;DHT22;3458;53.678;14.080;2023-03-01T02:40:58;0.10;99.90
6841;DHT22;3458;53.678;14.080;2023-03-01T02:43:29;0.10;99.90
6841;DHT22;3458;53.678;14.080;2023-03-01T02:45:58;0.10;99.90
6841;DHT22;3458;53.678;14.080;2023-03-01T02:48:24;0.10;99.90
6841;DHT22;3458;53.678;14.080;2023-03-01T02:53:37;0.10;99.90
6841;DHT22;3458;53.678;14.080;2023-03-01T02:56:04;0.00;99.90
6841;DHT22;3458;53.678;14.080;2023-03-01T02:58:30;0.00;99.90
6841;DHT22;3458;53.678;14.080;2023-03-01T03:00:56;0.00;99.90
6841;DHT22;3458;53.678;14.080;2023-03-01T03:03:22;0.10;99.90
6841;DHT22;3458;53.678;14.080;2023-03-01T03:05:47;0.10;99.90
6841;DHT22;3458;53.678;14.080;2023-03-01T03:08:13;0.10;99.90
6841;DHT22;3458;53.678;14.080;2023-03-01T03:10:41;0.10;99.90
6841;DHT22;3458;53.678;14.080;2023-03-01T03:13:13;0.10;99.90
6841;DHT22;3458;53.678;14.080;2023-03-01T03:15:40;0.10;99.90
6841;DHT22;3458;53.678;14.080;2023-03-01T03:18:09;0.10;99.90
6841;DHT22;3458;53.678;14.080;2023-03-01T03:20:37;0.10;99.90
6841;DHT22;3458;53.678;14.080;2023-03-01T03:23:04;0.10;99.90
6841;DHT22;3458;53.678;14.080;2023-03-01T03:25:30;0.00;99.90
6841;DHT22;3458;53.678;14.080;2023-03-01T03:27:56;0.00;99.90
6841;DHT22;3458;53.678;14.080;2023-03-01T03:30:27;0.00;99.90
6841;DHT22;3458;53.678;14.080;2023-03-01T03:32:53;0.00;99.90
6841;DHT22;3458;53.678;14.080;2023-03-01T03:35:27;0.00;99.90
6841;DHT22;3458;53.678;14.080;2023-03-01T03:37:55;0.10;99.90
6841;DHT22;3458;53.678;14.080;2023-03-01T03:40:38;0.10;99.90
6841;DHT22;3458;53.678;14.080;2023-03-01T03:43:06;0.10;99.90
6841;DHT22;3458;53.678;14.080;2023-03-01T03:45:32;0.10;99.90
6841;DHT22;3458;53.678;14.080;2023-03-01T03:47:59;0.10;99.90
6841;DHT22;3458;53.678;14.080;2023-03-01T03:50:24;0.10;99.90
6841;DHT22;3458;53.678;14.080;2023-03-01T03:52:50;0.10;99.90
6841;DHT22;3458;53.678;14.080;2023-03-01T03:55:15;0.10;99.90
6841;DHT22;3458;53.678;14.080;2023-03-01T03:57:46;0.10;99.90
6841;DHT22;3458;53.678;14.080;2023-03-01T04:00:20;0.10;99.90
6841;DHT22;3458;53.678;14.080;2023-03-01T04:02:47;0.10;99.90
6841;DHT22;3458;53.678;14.080;2023-03-01T04:05:18;0.10;99.90
6841;DHT22;3458;53.678;14.080;2023-03-01T04:07:44;0.10;99.90
6841;DHT22;3458;53.678;14.080;2023-03-01T04:10:14;0.10;99.90
6841;DHT22;3458;53.678;14.080;2023-03-01T04:12:39;0.00;99.90
6841;DHT22;3458;53.678;14.080;2023-03-01T04:15:06;0.00;99.90
6841;DHT22;3458;53.678;14.080;2023-03-01T04:17:46;0.00;99.90
6841;DHT22;3458;53.678;14.080;2023-03-01T04:20:17;0.00;99.90
6841;DHT22;3458;53.678;14.080;2023-03-01T04:22:44;-0.10;99.90
6841;DHT22;3458;53.678;14.080;2023-03-01T04:25:12;-0.10;99.90
6841;DHT22;3458;53.678;14.080;2023-03-01T04:27:39;0.00;99.90
6841;DHT22;3458;53.678;14.080;2023-03-01T04:30:06;0.00;99.90
6841;DHT22;3458;53.678;14.080;2023-03-01T04:32:32;0.00;99.90
6841;DHT22;3458;53.678;14.080;2023-03-01T04:34:57;-0.10;99.90
6841;DHT22;3458;53.678;14.080;2023-03-01T04:37:23;-0.10;99.90
6841;DHT22;3458;53.678;14.080;2023-03-01T04:39:49;-0.10;99.90
6841;DHT22;3458;53.678;14.080;2023-03-01T04:42:15;-0.10;99.90
6841;DHT22;3458;53.678;14.080;2023-03-01T04:44:42;-0.10;99.90
6841;DHT22;3458;53.678;14.080;2023-03-01T04:47:07;-0.10;99.90
6841;DHT22;3458;53.678;14.080;2023-03-01T04:49:33;-0.10;99.90
6841;DHT22;3458;53.678;14.080;2023-03-01T04:51:58;-0.10;99.90
6841;DHT22;3458;53.678;14.080;2023-03-01T04:54:27;-0.10;99.90
6841;DHT22;3458;53.678;14.080;2023-03-01T04:56:54;-0.10;99.90
6841;DHT22;3458;53.678;14.080;2023-03-01T04:59:19;0.00;99.90
6841;DHT22;3458;53.678;14.080;2023-03-01T05:01:51;0.00;99.90
6841;DHT22;3458;53.678;14.080;2023-03-01T05:04:16;0.00;99.90
6841;DHT22;3458;53.678;14.080;2023-03-01T05:06:42;-0.10;99.90
6841;DHT22;3458;53.678;14.080;2023-03-01T05:09:08;-0.10;99.90
6841;DHT22;3458;53.678;14.080;2023-03-01T05:11:33;-0.10;99.90
6841;DHT22;3458;53.678;14.080;2023-03-01T05:14:02;-0.20;99.90
6841;DHT22;3458;53.678;14.080;2023-03-01T05:16:28;-0.20;99.90
6841;DHT22;3458;53.678;14.080;2023-03-01T05:18:53;-0.20;99.90
6841;DHT22;3458;53.678;14.080;2023-03-01T05:21:21;-0.20;99.90
6841;DHT22;3458;53.678;14.080;2023-03-01T05:23:46;-0.20;99.90
6841;DHT22;3458;53.678;14.080;2023-03-01T05:26:12;-0.30;99.90
6841;DHT22;3458;53.678;14.080;2023-03-01T05:28:38;-0.30;99.90
6841;DHT22;3458;53.678;14.080;2023-03-01T05:31:05;-0.30;99.90
6841;DHT22;3458;53.678;14.080;2023-03-01T05:33:38;-0.30;99.90
6841;DHT22;3458;53.678;14.080;2023-03-01T05:36:06;-0.30;99.90
6841;DHT22;3458;53.678;14.080;2023-03-01T05:38:32;-0.30;99.90
6841;DHT22;3458;53.678;14.080;2023-03-01T05:40:58;-0.20;99.90
6841;DHT22;3458;53.678;14.080;2023-03-01T05:43:23;-0.20;99.90
6841;DHT22;3458;53.678;14.080;2023-03-01T05:45:49;-0.20;99.90
6841;DHT22;3458;53.678;14.080;2023-03-01T05:48:14;-0.20;99.90
6841;DHT22;3458;53.678;14.080;2023-03-01T05:50:42;-0.20;99.90
6841;DHT22;3458;53.678;14.080;2023-03-01T05:53:11;-0.30;99.90
6841;DHT22;3458;53.678;14.080;2023-03-01T05:55:38;-0.30;99.90
6841;DHT22;3458;53.678;14.080;2023-03-01T05:58:07;-0.30;99.90
6841;DHT22;3458;53.678;14.080;2023-03-01T06:00:33;-0.20;99.90
6841;DHT22;3458;53.678;14.080;2023-03-01T06:02:59;-0.20;99.90
6841;DHT22;3458;53.678;14.080;2023-03-01T06:05:26;-0.20;99.90
6841;DHT22;3458;53.678;14.080;2023-03-01T06:07:52;-0.30;99.90
6841;DHT22;3458;53.678;14.080;2023-03-01T06:10:19;-0.30;99.90
6841;DHT22;3458;53.678;14.080;2023-03-01T06:12:45;-0.30;99.90
6841;DHT22;3458;53.678;14.080;2023-03-01T06:15:15;-0.20;99.90
6841;DHT22;3458;53.678;14.080;2023-03-01T06:17:43;-0.20;99.90
6841;DHT22;3458;53.678;14.080;2023-03-01T06:20:19;-0.10;99.90
6841;DHT22;3458;53.678;14.080;2023-03-01T06:22:46;-0.10;99.90
6841;DHT22;3458;53.678;14.080;2023-03-01T06:25:14;-0.10;99.90
6841;DHT22;3458;53.678;14.080;2023-03-01T06:27:41;0.00;99.90
6841;DHT22;3458;53.678;14.080;2023-03-01T06:30:13;0.00;99.90
6841;DHT22;3458;53.678;14.080;2023-03-01T06:32:39;0.00;99.90
6841;DHT22;3458;53.678;14.080;2023-03-01T06:35:12;0.00;99.90
6841;DHT22;3458;53.678;14.080;2023-03-01T06:37:38;0.00;99.90
6841;DHT22;3458;53.678;14.080;2023-03-01T06:40:05;0.00;99.90
6841;DHT22;3458;53.678;14.080;2023-03-01T06:42:35;-0.10;99.90
6841;DHT22;3458;53.678;14.080;2023-03-01T06:45:01;-0.10;99.90
6841;DHT22;3458;53.678;14.080;2023-03-01T06:47:27;-0.10;99.90
6841;DHT22;3458;53.678;14.080;2023-03-01T06:49:52;-0.10;99.90
6841;DHT22;3458;53.678;14.080;2023-03-01T06:52:18;-0.20;99.90
6841;DHT22;3458;53.678;14.080;2023-03-01T06:54:43;-0.20;99.90
6841;DHT22;3458;53.678;14.080;2023-03-01T06:57:09;-0.10;99.90
6841;DHT22;3458;53.678;14.080;2023-03-01T06:59:34;-0.10;99.90
6841;DHT22;3458;53.678;14.080;2023-03-01T07:02:00;0.00;99.90
6841;DHT22;3458;53.678;14.080;2023-03-01T07:04:25;0.10;99.90
6841;DHT22;3458;53.678;14.080;2023-03-01T07:06:53;0.10;99.90
6841;DHT22;3458;53.678;14.080;2023-03-01T07:09:21;0.10;99.90
6841;DHT22;3458;53.678;14.080;2023-03-01T07:11:47;0.10;99.90
6841;DHT22;3458;53.678;14.080;2023-03-01T07:14:13;0.20;99.90
6841;DHT22;3458;53.678;14.080;2023-03-01T07:16:38;0.20;99.90
6841;DHT22;3458;53.678;14.080;2023-03-01T07:19:04;0.20;99.90
6841;DHT22;3458;53.678;14.080;2023-03-01T07:21:30;0.20;99.90
6841;DHT22;3458;53.678;14.080;2023-03-01T07:23:56;0.30;99.90
6841;DHT22;3458;53.678;14.080;2023-03-01T07:26:22;0.30;99.90
6841;DHT22;3458;53.678;14.080;2023-03-01T07:28:47;0.40;99.90
6841;DHT22;3458;53.678;14.080;2023-03-01T07:31:13;0.40;99.90
6841;DHT22;3458;53.678;14.080;2023-03-01T07:33:38;0.40;99.90
6841;DHT22;3458;53.678;14.080;2023-03-01T07:36:05;0.50;99.90
6841;DHT22;3458;53.678;14.080;2023-03-01T07:38:31;0.60;99.90
6841;DHT22;3458;53.678;14.080;2023-03-01T07:41:01;0.60;99.90
6841;DHT22;3458;53.678;14.080;2023-03-01T07:43:28;0.70;99.90
6841;DHT22;3458;53.678;14.080;2023-03-01T07:45:54;0.80;99.90
6841;DHT22;3458;53.678;14.080;2023-03-01T07:48:19;0.70;99.90
6841;DHT22;3458;53.678;14.080;2023-03-01T07:50:45;0.70;99.90
6841;DHT22;3458;53.678;14.080;2023-03-01T07:53:10;0.70;99.90
6841;DHT22;3458;53.678;14.080;2023-03-01T07:55:36;0.70;99.90
6841;DHT22;3458;53.678;14.080;2023-03-01T07:58:02;0.80;99.90
6841;DHT22;3458;53.678;14.080;2023-03-01T08:00:28;0.90;99.90
6841;DHT22;3458;53.678;14.080;2023-03-01T08:02:53;1.00;99.90
6841;DHT22;3458;53.678;14.080;2023-03-01T08:05:19;1.10;99.90
6841;DHT22;3458;53.678;14.080;2023-03-01T08:07:44;1.20;99.90
6841;DHT22;3458;53.678;14.080;2023-03-01T08:10:10;1.30;99.90
6841;DHT22;3458;53.678;14.080;2023-03-01T08:12:36;1.40;99.90
6841;DHT22;3458;53.678;14.080;2023-03-01T08:15:01;1.50;99.90
6841;DHT22;3458;53.678;14.080;2023-03-01T08:17:27;1.60;99.90
6841;DHT22;3458;53.678;14.080;2023-03-01T08:19:52;1.70;99.90
6841;DHT22;3458;53.678;14.080;2023-03-01T08:22:17;1.80;99.90
6841;DHT22;3458;53.678;14.080;2023-03-01T08:24:43;1.80;99.90
6841;DHT22;3458;53.678;14.080;2023-03-01T08:27:09;1.90;99.90
6841;DHT22;3458;53.678;14.080;2023-03-01T08:29:35;2.00;99.90
6841;DHT22;3458;53.678;14.080;2023-03-01T08:32:00;2.10;99.90
6841;DHT22;3458;53.678;14.080;2023-03-01T08:34:26;2.10;99.90
6841;DHT22;3458;53.678;14.080;2023-03-01T08:36:51;2.20;99.90
6841;DHT22;3458;53.678;14.080;2023-03-01T08:39:18;2.30;99.90
6841;DHT22;3458;53.678;14.080;2023-03-01T08:41:45;2.50;99.90
6841;DHT22;3458;53.678;14.080;2023-03-01T08:44:12;2.60;99.90
6841;DHT22;3458;53.678;14.080;2023-03-01T08:46:40;2.70;99.90
6841;DHT22;3458;53.678;14.080;2023-03-01T08:49:07;2.70;99.90
6841;DHT22;3458;53.678;14.080;2023-03-01T08:51:33;2.80;99.90
6841;DHT22;3458;53.678;14.080;2023-03-01T08:54:03;3.00;99.90
6841;DHT22;3458;53.678;14.080;2023-03-01T08:56:28;3.10;99.90
6841;DHT22;3458;53.678;14.080;2023-03-01T08:58:54;3.20;99.90
6841;DHT22;3458;53.678;14.080;2023-03-01T09:01:19;3.40;99.90
6841;DHT22;3458;53.678;14.080;2023-03-01T09:03:45;3.50;99.90
6841;DHT22;3458;53.678;14.080;2023-03-01T09:06:11;3.60;99.90
6841;DHT22;3458;53.678;14.080;2023-03-01T09:08:38;3.70;99.90
6841;DHT22;3458;53.678;14.080;2023-03-01T09:11:06;3.90;99.90
6841;DHT22;3458;53.678;14.080;2023-03-01T09:13:32;4.00;99.90
6841;DHT22;3458;53.678;14.080;2023-03-01T09:16:00;4.20;99.90
6841;DHT22;3458;53.678;14.080;2023-03-01T09:18:25;4.40;99.90
6841;DHT22;3458;53.678;14.080;2023-03-01T09:20:51;4.50;99.90
6841;DHT22;3458;53.678;14.080;2023-03-01T09:23:16;4.70;99.90
6841;DHT22;3458;53.678;14.080;2023-03-01T09:25:42;4.70;99.90
6841;DHT22;3458;53.678;14.080;2023-03-01T09:28:07;4.80;99.90
6841;DHT22;3458;53.678;14.080;2023-03-01T09:30:33;4.90;99.90
6841;DHT22;3458;53.678;14.080;2023-03-01T09:32:58;5.00;99.90
6841;DHT22;3458;53.678;14.080;2023-03-01T09:35:24;5.10;99.90
6841;DHT22;3458;53.678;14.080;2023-03-01T09:37:49;5.20;99.90
6841;DHT22;3458;53.678;14.080;2023-03-01T09:40:21;5.40;99.90
6841;DHT22;3458;53.678;14.080;2023-03-01T09:43:11;5.40;99.90
6841;DHT22;3458;53.678;14.080;2023-03-01T09:45:41;5.50;99.90
6841;DHT22;3458;53.678;14.080;2023-03-01T09:48:23;5.60;99.90
6841;DHT22;3458;53.678;14.080;2023-03-01T09:50:51;5.70;99.90
6841;DHT22;3458;53.678;14.080;2023-03-01T09:53:22;5.80;99.90
6841;DHT22;3458;53.678;14.080;2023-03-01T09:56:05;5.90;99.90
6841;DHT22;3458;53.678;14.080;2023-03-01T09:58:41;6.20;99.90
6841;DHT22;3458;53.678;14.080;2023-03-01T10:01:34;6.30;99.90
6841;DHT22;3458;53.678;14.080;2023-03-01T10:09:38;6.70;99.90
6841;DHT22;3458;53.678;14.080;2023-03-01T10:12:15;6.80;99.90
6841;DHT22;3458;53.678;14.080;2023-03-01T10:15:05;6.90;99.90
6841;DHT22;3458;53.678;14.080;2023-03-01T10:17:37;7.00;99.90
6841;DHT22;3458;53.678;14.080;2023-03-01T10:20:20;7.00;99.90
6841;DHT22;3458;53.678;14.080;2023-03-01T10:22:46;7.10;99.90
6841;DHT22;3458;53.678;14.080;2023-03-01T10:25:36;7.30;99.90
6841;DHT22;3458;53.678;14.080;2023-03-01T10:30:50;7.70;99.90
6841;DHT22;3458;53.678;14.080;2023-03-01T10:33:26;7.60;99.90
6841;DHT22;3458;53.678;14.080;2023-03-01T10:35:52;7.70;99.90
6841;DHT22;3458;53.678;14.080;2023-03-01T10:38:19;7.70;99.90
6841;DHT22;3458;53.678;14.080;2023-03-01T10:41:05;7.80;99.90
6841;DHT22;3458;53.678;14.080;2023-03-01T10:43:55;7.90;99.90
6841;DHT22;3458;53.678;14.080;2023-03-01T10:46:29;8.10;99.90
6841;DHT22;3458;53.678;14.080;2023-03-01T10:49:18;8.20;99.90
6841;DHT22;3458;53.678;14.080;2023-03-01T10:51:45;8.20;99.90
6841;DHT22;3458;53.678;14.080;2023-03-01T10:54:28;8.20;99.90
6841;DHT22;3458;53.678;14.080;2023-03-01T10:56:56;8.20;99.90
6841;DHT22;3458;53.678;14.080;2023-03-01T10:59:27;8.30;99.90
6841;DHT22;3458;53.678;14.080;2023-03-01T11:02:14;8.60;99.90
6841;DHT22;3458;53.678;14.080;2023-03-01T11:04:57;8.70;99.90
6841;DHT22;3458;53.678;14.080;2023-03-01T11:07:22;8.80;99.90
6841;DHT22;3458;53.678;14.080;2023-03-01T11:09:48;8.90;99.90
6841;DHT22;3458;53.678;14.080;2023-03-01T11:12:14;9.00;99.90
6841;DHT22;3458;53.678;14.080;2023-03-01T11:14:47;9.10;99.90
6841;DHT22;3458;53.678;14.080;2023-03-01T11:17:31;9.10;99.90
6841;DHT22;3458;53.678;14.080;2023-03-01T11:20:02;9.20;99.90
6841;DHT22;3458;53.678;14.080;2023-03-01T11:22:31;9.30;99.90
6841;DHT22;3458;53.678;14.080;2023-03-01T11:24:58;9.40;99.90
6841;DHT22;3458;53.678;14.080;2023-03-01T11:27:28;9.40;99.90
6841;DHT22;3458;53.678;14.080;2023-03-01T11:30:05;9.50;99.90
6841;DHT22;3458;53.678;14.080;2023-03-01T11:32:42;9.60;99.90
6841;DHT22;3458;53.678;14.080;2023-03-01T11:35:17;9.70;99.90
6841;DHT22;3458;53.678;14.080;2023-03-01T11:40:34;10.00;99.90
6841;DHT22;3458;53.678;14.080;2023-03-01T11:43:10;10.10;99.90
6841;DHT22;3458;53.678;14.080;2023-03-01T11:45:52;10.10;99.90
6841;DHT22;3458;53.678;14.080;2023-03-01T11:51:20;10.40;99.90
6841;DHT22;3458;53.678;14.080;2023-03-01T11:54:15;10.70;99.90
6841;DHT22;3458;53.678;14.080;2023-03-01T11:56:54;10.90;99.90
6841;DHT22;3458;53.678;14.080;2023-03-01T12:08:00;11.40;97.70
6841;DHT22;3458;53.678;14.080;2023-03-01T12:10:59;11.40;97.50
6841;DHT22;3458;53.678;14.080;2023-03-01T12:22:29;11.50;95.40
6841;DHT22;3458;53.678;14.080;2023-03-01T12:25:32;11.30;95.50
6841;DHT22;3458;53.678;14.080;2023-03-01T12:28:18;11.20;95.90
6841;DHT22;3458;53.678;14.080;2023-03-01T12:31:15;11.30;96.80
6841;DHT22;3458;53.678;14.080;2023-03-01T12:36:56;11.30;96.10
6841;DHT22;3458;53.678;14.080;2023-03-01T12:48:43;11.10;96.00
6841;DHT22;3458;53.678;14.080;2023-03-01T12:51:15;11.10;96.60
6841;DHT22;3458;53.678;14.080;2023-03-01T12:53:47;11.30;96.40
6841;DHT22;3458;53.678;14.080;2023-03-01T12:56:36;11.60;95.80
6841;DHT22;3458;53.678;14.080;2023-03-01T12:59:18;11.90;94.60
6841;DHT22;3458;53.678;14.080;2023-03-01T13:02:03;12.30;93.00
6841;DHT22;3458;53.678;14.080;2023-03-01T13:04:40;12.50;90.50
6841;DHT22;3458;53.678;14.080;2023-03-01T13:07:17;12.90;90.10
6841;DHT22;3458;53.678;14.080;2023-03-01T13:10:23;13.30;87.60
6841;DHT22;3458;53.678;14.080;2023-03-01T13:15:26;13.80;82.20
6841;DHT22;3458;53.678;14.080;2023-03-01T13:18:03;14.00;76.20
6841;DHT22;3458;53.678;14.080;2023-03-01T13:30:57;15.00;67.60
6841;DHT22;3458;53.678;14.080;2023-03-01T13:35:53;15.50;66.70
6841;DHT22;3458;53.678;14.080;2023-03-01T13:41:07;15.80;62.70
6841;DHT22;3458;53.678;14.080;2023-03-01T13:43:36;15.80;63.40
6841;DHT22;3458;53.678;14.080;2023-03-01T13:46:20;15.90;63.10
6841;DHT22;3458;53.678;14.080;2023-03-01T13:48:50;16.20;61.60
6841;DHT22;3458;53.678;14.080;2023-03-01T13:51:26;16.40;60.60
6841;DHT22;3458;53.678;14.080;2023-03-01T13:53:53;16.70;60.30
6841;DHT22;3458;53.678;14.080;2023-03-01T13:58:53;16.70;59.70
6841;DHT22;3458;53.678;14.080;2023-03-01T14:01:31;16.50;58.40
6841;DHT22;3458;53.678;14.080;2023-03-01T14:03:57;16.10;57.60
6841;DHT22;3458;53.678;14.080;2023-03-01T14:06:26;15.90;58.10
6841;DHT22;3458;53.678;14.080;2023-03-01T14:09:10;16.10;57.70
6841;DHT22;3458;53.678;14.080;2023-03-01T14:14:28;16.80;56.60
6841;DHT22;3458;53.678;14.080;2023-03-01T14:17:23;16.90;55.80
6841;DHT22;3458;53.678;14.080;2023-03-01T14:19:57;16.80;55.50
6841;DHT22;3458;53.678;14.080;2023-03-01T14:22:25;16.80;56.20
6841;DHT22;3458;53.678;14.080;2023-03-01T14:24:59;16.90;56.30
6841;DHT22;3458;53.678;14.080;2023-03-01T14:27:28;17.00;56.50
6841;DHT22;3458;53.678;14.080;2023-03-01T14:29:58;17.00;56.00
6841;DHT22;3458;53.678;14.080;2023-03-01T14:32:26;17.10;55.90
6841;DHT22;3458;53.678;14.080;2023-03-01T14:34:52;17.10;55.80
6841;DHT22;3458;53.678;14.080;2023-03-01T14:37:18;17.10;56.20
6841;DHT22;3458;53.678;14.080;2023-03-01T14:39:45;17.10;56.30
6841;DHT22;3458;53.678;14.080;2023-03-01T14:42:12;17.00;56.40
6841;DHT22;3458;53.678;14.080;2023-03-01T14:44:41;16.90;57.30
6841;DHT22;3458;53.678;14.080;2023-03-01T14:47:12;16.90;56.90
6841;DHT22;3458;53.678;14.080;2023-03-01T14:49:40;17.20;56.60
6841;DHT22;3458;53.678;14.080;2023-03-01T14:52:18;17.50;56.10
6841;DHT22;3458;53.678;14.080;2023-03-01T14:54:48;17.70;55.30
6841;DHT22;3458;53.678;14.080;2023-03-01T14:57:21;17.80;54.60
6841;DHT22;3458;53.678;14.080;2023-03-01T14:59:48;18.00;54.50
6841;DHT22;3458;53.678;14.080;2023-03-01T15:02:18;17.80;53.60
6841;DHT22;3458;53.678;14.080;2023-03-01T15:04:50;17.70;54.10
6841;DHT22;3458;53.678;14.080;2023-03-01T15:07:17;17.70;53.20
6841;DHT22;3458;53.678;14.080;2023-03-01T15:09:43;17.50;54.10
6841;DHT22;3458;53.678;14.080;2023-03-01T15:12:34;17.50;53.70
6841;DHT22;3458;53.678;14.080;2023-03-01T15:15:01;17.50;54.00
6841;DHT22;3458;53.678;14.080;2023-03-01T15:17:31;17.60;54.10
6841;DHT22;3458;53.678;14.080;2023-03-01T15:19:57;17.40;54.10
6841;DHT22;3458;53.678;14.080;2023-03-01T15:22:25;17.00;54.20
6841;DHT22;3458;53.678;14.080;2023-03-01T15:24:51;16.90;54.80
6841;DHT22;3458;53.678;14.080;2023-03-01T15:27:19;17.00;54.70
6841;DHT22;3458;53.678;14.080;2023-03-01T15:29:50;17.10;54.00
6841;DHT22;3458;53.678;14.080;2023-03-01T15:32:33;17.20;54.00
6841;DHT22;3458;53.678;14.080;2023-03-01T15:35:01;17.50;53.50
6841;DHT22;3458;53.678;14.080;2023-03-01T15:37:48;17.30;53.80
6841;DHT22;3458;53.678;14.080;2023-03-01T15:40:29;16.90;54.10
6841;DHT22;3458;53.678;14.080;2023-03-01T15:43:03;15.90;55.60
6841;DHT22;3458;53.678;14.080;2023-03-01T15:45:30;15.00;57.00
6841;DHT22;3458;53.678;14.080;2023-03-01T15:48:02;14.40;58.10
6841;DHT22;3458;53.678;14.080;2023-03-01T15:50:36;13.90;58.90
6841;DHT22;3458;53.678;14.080;2023-03-01T15:53:07;13.40;59.50
6841;DHT22;3458;53.678;14.080;2023-03-01T15:55:36;13.00;60.40
6841;DHT22;3458;53.678;14.080;2023-03-01T15:58:15;12.60;61.70
6841;DHT22;3458;53.678;14.080;2023-03-01T16:00:42;12.10;62.80
6841;DHT22;3458;53.678;14.080;2023-03-01T16:03:10;11.80;63.80
6841;DHT22;3458;53.678;14.080;2023-03-01T16:05:38;11.50;64.70
6841;DHT22;3458;53.678;14.080;2023-03-01T16:08:05;11.30;65.70
6841;DHT22;3458;53.678;14.080;2023-03-01T16:10:31;11.10;66.70
6841;DHT22;3458;53.678;14.080;2023-03-01T16:12:57;10.90;67.70
6841;DHT22;3458;53.678;14.080;2023-03-01T16:15:28;10.70;68.60
6841;DHT22;3458;53.678;14.080;2023-03-01T16:17:54;10.50;69.00
6841;DHT22;3458;53.678;14.080;2023-03-01T16:20:20;10.30;69.90
6841;DHT22;3458;53.678;14.080;2023-03-01T16:22:46;10.20;70.60
6841;DHT22;3458;53.678;14.080;2023-03-01T16:25:14;10.00;71.20
6841;DHT22;3458;53.678;14.080;2023-03-01T16:27:44;9.90;73.00
6841;DHT22;3458;53.678;14.080;2023-03-01T16:30:11;9.80;73.80
6841;DHT22;3458;53.678;14.080;2023-03-01T16:32:38;9.60;74.10
6841;DHT22;3458;53.678;14.080;2023-03-01T16:35:05;9.50;74.60
6841;DHT22;3458;53.678;14.080;2023-03-01T16:37:32;9.40;75.10
6841;DHT22;3458;53.678;14.080;2023-03-01T16:39:58;9.30;75.80
6841;DHT22;3458;53.678;14.080;2023-03-01T16:42:23;9.20;77.20
6841;DHT22;3458;53.678;14.080;2023-03-01T16:44:54;9.10;76.80
6841;DHT22;3458;53.678;14.080;2023-03-01T16:47:21;9.00;77.60
6841;DHT22;3458;53.678;14.080;2023-03-01T16:49:46;8.90;78.10
6841;DHT22;3458;53.678;14.080;2023-03-01T16:52:12;8.80;79.80
6841;DHT22;3458;53.678;14.080;2023-03-01T16:54:37;8.60;79.70
6841;DHT22;3458;53.678;14.080;2023-03-01T16:57:03;8.60;80.00
6841;DHT22;3458;53.678;14.080;2023-03-01T16:59:29;8.50;80.60
6841;DHT22;3458;53.678;14.080;2023-03-01T17:01:55;8.40;80.90
6841;DHT22;3458;53.678;14.080;2023-03-01T17:04:20;8.30;81.30
6841;DHT22;3458;53.678;14.080;2023-03-01T17:06:46;8.30;81.80
6841;DHT22;3458;53.678;14.080;2023-03-01T17:09:13;8.20;82.30
6841;DHT22;3458;53.678;14.080;2023-03-01T17:11:39;8.10;82.80
6841;DHT22;3458;53.678;14.080;2023-03-01T17:14:04;8.00;83.30
6841;DHT22;3458;53.678;14.080;2023-03-01T17:16:30;8.00;83.80
6841;DHT22;3458;53.678;14.080;2023-03-01T17:18:55;7.90;84.10
6841;DHT22;3458;53.678;14.080;2023-03-01T17:21:21;7.80;84.40
6841;DHT22;3458;53.678;14.080;2023-03-01T17:23:47;7.70;85.10